sensor_id;sensor_type;location;lat;lon;timestamp;pressure;altitude;pressure_sealevel;temperature;humidity
75166;BME280;63747;48.042;10.088;2023-01-24T00:05:10;96272.47;;;-1.18;76.44
75166;BME280;63747;48.042;10.088;2023-01-24T00:08:13;96271.41;;;-1.14;76.46
75166;BME280;63747;48.042;10.088;2023-01-24T00:15:11;96263.72;;;-1.17;76.47
75166;BME280;63747;48.042;10.088;2023-01-24T00:22:08;96276.13;;;-1.22;76.67
75166;BME280;63747;48.042;10.088;2023-01-24T00:25:09;96271.22;;;-1.28;76.95
75166;BME280;63747;48.042;10.088;2023-01-24T00:28:09;96277.75;;;-1.20;76.64
75166;BME280;63747;48.042;10.088;2023-01-24T00:31:10;96270.78;;;-1.19;76.65
75166;BME280;63747;48.042;10.088;2023-01-24T00:38:08;96269.94;;;-1.20;76.75
75166;BME280;63747;48.042;10.088;2023-01-24T00:41:08;96277.75;;;-1.20;76.49
75166;BME280;63747;48.042;10.088;2023-01-24T00:48:08;96275.56;;;-1.29;77.11
75166;BME280;63747;48.042;10.088;2023-01-24T00:54:53;96281.63;;;-1.28;77.10
75166;BME280;63747;48.042;10.088;2023-01-24T00:57:54;96287.75;;;-1.29;77.26
75166;BME280;63747;48.042;10.088;2023-01-24T01:00:56;96289.19;;;-1.24;77.00
75166;BME280;63747;48.042;10.088;2023-01-24T01:03:58;96284.91;;;-1.25;76.83
75166;BME280;63747;48.042;10.088;2023-01-24T01:06:58;96278.13;;;-1.27;77.09
75166;BME280;63747;48.042;10.088;2023-01-24T01:13:56;96289.19;;;-1.24;76.67
75166;BME280;63747;48.042;10.088;2023-01-24T01:20:54;96304.25;;;-1.30;77.01
75166;BME280;63747;48.042;10.088;2023-01-24T01:23:55;96296.38;;;-1.29;77.14
75166;BME280;63747;48.042;10.088;2023-01-24T01:30:53;96294.03;;;-1.33;77.30
75166;BME280;63747;48.042;10.088;2023-01-24T01:33:54;96290.41;;;-1.31;77.13
75166;BME280;63747;48.042;10.088;2023-01-24T01:36:54;96291.13;;;-1.27;77.22
75166;BME280;63747;48.042;10.088;2023-01-24T01:39:55;96290.59;;;-1.34;77.49
75166;BME280;63747;48.042;10.088;2023-01-24T01:46:53;96284.53;;;-1.34;77.72
75166;BME280;63747;48.042;10.088;2023-01-24T01:54:04;96292.41;;;-1.36;77.97
75166;BME280;63747;48.042;10.088;2023-01-24T02:01:04;96289.03;;;-1.38;77.75
75166;BME280;63747;48.042;10.088;2023-01-24T02:04:12;96295.69;;;-1.32;77.81
75166;BME280;63747;48.042;10.088;2023-01-24T02:07:23;96297.38;;;-1.31;77.58
75166;BME280;63747;48.042;10.088;2023-01-24T02:10:25;96286.97;;;-1.31;77.62
75166;BME280;63747;48.042;10.088;2023-01-24T02:13:47;96298.22;;;-1.31;77.89
75166;BME280;63747;48.042;10.088;2023-01-24T02:16:48;96305.03;;;-1.28;77.31
75166;BME280;63747;48.042;10.088;2023-01-24T02:24:04;96307.56;;;-1.27;77.40
75166;BME280;63747;48.042;10.088;2023-01-24T02:31:06;96311.09;;;-1.28;77.40
75166;BME280;63747;48.042;10.088;2023-01-24T02:38:06;96306.88;;;-1.30;77.68
75166;BME280;63747;48.042;10.088;2023-01-24T02:41:08;96313.75;;;-1.29;77.86
75166;BME280;63747;48.042;10.088;2023-01-24T02:44:10;96308.72;;;-1.32;77.90
75166;BME280;63747;48.042;10.088;2023-01-24T02:47:13;96311.22;;;-1.31;77.95
75166;BME280;63747;48.042;10.088;2023-01-24T02:54:26;96319.78;;;-1.29;77.70
75166;BME280;63747;48.042;10.088;2023-01-24T02:57:27;96312.81;;;-1.28;77.76
75166;BME280;63747;48.042;10.088;2023-01-24T03:00:57;96308.50;;;-1.28;77.68
75166;BME280;63747;48.042;10.088;2023-01-24T03:03:58;96320.34;;;-1.22;77.47
75166;BME280;63747;48.042;10.088;2023-01-24T03:06:58;96309.16;;;-1.24;77.53
75166;BME280;63747;48.042;10.088;2023-01-24T03:09:59;96299.47;;;-1.21;77.57
75166;BME280;63747;48.042;10.088;2023-01-24T03:13:00;96315.13;;;-1.22;77.79
75166;BME280;63747;48.042;10.088;2023-01-24T03:16:20;96313.06;;;-1.33;78.41
75166;BME280;63747;48.042;10.088;2023-01-24T03:19:39;96316.34;;;-1.29;78.21
75166;BME280;63747;48.042;10.088;2023-01-24T03:22:59;96316.72;;;-1.37;78.47
75166;BME280;63747;48.042;10.088;2023-01-24T03:26:18;96312.53;;;-1.39;78.79
75166;BME280;63747;48.042;10.088;2023-01-24T03:29:44;96325.53;;;-1.39;78.58
75166;BME280;63747;48.042;10.088;2023-01-24T03:33:04;96323.59;;;-1.36;78.35
75166;BME280;63747;48.042;10.088;2023-01-24T03:36:43;96328.59;;;-1.31;78.34
75166;BME280;63747;48.042;10.088;2023-01-24T03:39:43;96331.34;;;-1.34;78.45
75166;BME280;63747;48.042;10.088;2023-01-24T03:42:53;96342.03;;;-1.41;78.91
75166;BME280;63747;48.042;10.088;2023-01-24T03:46:00;96333.25;;;-1.38;78.69
75166;BME280;63747;48.042;10.088;2023-01-24T03:49:01;96337.44;;;-1.35;78.46
75166;BME280;63747;48.042;10.088;2023-01-24T03:52:01;96335.84;;;-1.38;79.09
75166;BME280;63747;48.042;10.088;2023-01-24T03:55:21;96342.03;;;-1.41;78.87
75166;BME280;63747;48.042;10.088;2023-01-24T03:58:22;96341.75;;;-1.34;78.92
75166;BME280;63747;48.042;10.088;2023-01-24T04:01:24;96337.53;;;-1.37;78.67
75166;BME280;63747;48.042;10.088;2023-01-24T04:04:25;96339.28;;;-1.37;79.06
75166;BME280;63747;48.042;10.088;2023-01-24T04:07:47;96347.25;;;-1.41;79.11
75166;BME280;63747;48.042;10.088;2023-01-24T04:10:48;96343.00;;;-1.43;78.96
75166;BME280;63747;48.042;10.088;2023-01-24T04:13:50;96346.47;;;-1.43;79.26
75166;BME280;63747;48.042;10.088;2023-01-24T04:16:51;96339.22;;;-1.36;78.83
75166;BME280;63747;48.042;10.088;2023-01-24T04:19:54;96344.34;;;-1.34;78.91
75166;BME280;63747;48.042;10.088;2023-01-24T04:22:54;96341.88;;;-1.37;78.90
75166;BME280;63747;48.042;10.088;2023-01-24T04:26:03;96352.00;;;-1.31;78.53
75166;BME280;63747;48.042;10.088;2023-01-24T04:29:04;96349.47;;;-1.33;78.79
75166;BME280;63747;48.042;10.088;2023-01-24T04:32:05;96347.84;;;-1.35;78.97
75166;BME280;63747;48.042;10.088;2023-01-24T04:35:06;96347.63;;;-1.31;78.80
75166;BME280;63747;48.042;10.088;2023-01-24T04:38:07;96351.00;;;-1.29;78.67
75166;BME280;63747;48.042;10.088;2023-01-24T04:41:08;96352.84;;;-1.31;79.16
75166;BME280;63747;48.042;10.088;2023-01-24T04:44:12;96350.16;;;-1.29;78.99
75166;BME280;63747;48.042;10.088;2023-01-24T04:47:13;96349.25;;;-1.28;78.77
75166;BME280;63747;48.042;10.088;2023-01-24T04:50:15;96361.97;;;-1.22;78.58
75166;BME280;63747;48.042;10.088;2023-01-24T04:53:15;96348.47;;;-1.30;79.12
75166;BME280;63747;48.042;10.088;2023-01-24T04:56:16;96350.03;;;-1.26;78.52
75166;BME280;63747;48.042;10.088;2023-01-24T04:59:17;96352.47;;;-1.23;78.68
75166;BME280;63747;48.042;10.088;2023-01-24T05:02:18;96348.28;;;-1.26;78.72
75166;BME280;63747;48.042;10.088;2023-01-24T05:05:18;96355.31;;;-1.28;78.70
75166;BME280;63747;48.042;10.088;2023-01-24T05:08:20;96358.75;;;-1.27;78.75
75166;BME280;63747;48.042;10.088;2023-01-24T05:11:21;96354.44;;;-1.28;78.96
75166;BME280;63747;48.042;10.088;2023-01-24T05:14:22;96355.31;;;-1.28;78.96
75166;BME280;63747;48.042;10.088;2023-01-24T05:17:23;96361.34;;;-1.27;78.91
75166;BME280;63747;48.042;10.088;2023-01-24T05:20:24;96360.19;;;-1.22;78.49
75166;BME280;63747;48.042;10.088;2023-01-24T05:23:24;96355.88;;;-1.21;78.24
75166;BME280;63747;48.042;10.088;2023-01-24T05:26:26;96348.06;;;-1.21;78.36
75166;BME280;63747;48.042;10.088;2023-01-24T05:29:27;96348.94;;;-1.22;78.12
75166;BME280;63747;48.042;10.088;2023-01-24T05:32:27;96342.91;;;-1.23;78.27
75166;BME280;63747;48.042;10.088;2023-01-24T05:35:28;96357.47;;;-1.19;78.17
75166;BME280;63747;48.042;10.088;2023-01-24T05:38:29;96356.63;;;-1.19;78.20
75166;BME280;63747;48.042;10.088;2023-01-24T05:41:29;96371.16;;;-1.15;78.22
75166;BME280;63747;48.042;10.088;2023-01-24T05:44:30;96361.00;;;-1.20;78.11
75166;BME280;63747;48.042;10.088;2023-01-24T05:47:31;96374.47;;;-1.11;78.10
75166;BME280;63747;48.042;10.088;2023-01-24T05:50:31;96378.66;;;-1.09;78.08
75166;BME280;63747;48.042;10.088;2023-01-24T05:53:35;96389.06;;;-1.09;78.15
75166;BME280;63747;48.042;10.088;2023-01-24T05:56:36;96402.59;;;-1.01;77.88
75166;BME280;63747;48.042;10.088;2023-01-24T05:59:37;96395.66;;;-1.02;77.98
75166;BME280;63747;48.042;10.088;2023-01-24T06:02:38;96400.00;;;-1.01;78.25
75166;BME280;63747;48.042;10.088;2023-01-24T06:05:39;96393.44;;;-1.09;78.00
75166;BME280;63747;48.042;10.088;2023-01-24T06:08:40;96397.69;;;-1.07;78.27
75166;BME280;63747;48.042;10.088;2023-01-24T06:11:42;96400.47;;;-1.11;78.29
75166;BME280;63747;48.042;10.088;2023-01-24T06:14:42;96408.13;;;-1.08;78.23
75166;BME280;63747;48.042;10.088;2023-01-24T06:17:43;96409.75;;;-1.06;78.21
75166;BME280;63747;48.042;10.088;2023-01-24T06:20:44;96408.97;;;-1.08;78.34
75166;BME280;63747;48.042;10.088;2023-01-24T06:23:45;96413.41;;;-1.10;78.50
75166;BME280;63747;48.042;10.088;2023-01-24T06:26:46;96419.03;;;-1.00;78.24
75166;BME280;63747;48.042;10.088;2023-01-24T06:29:49;96424.81;;;-0.94;77.96
75166;BME280;63747;48.042;10.088;2023-01-24T06:36:18;96436.19;;;-0.96;78.15
75166;BME280;63747;48.042;10.088;2023-01-24T06:39:22;96429.16;;;-0.94;77.74
75166;BME280;63747;48.042;10.088;2023-01-24T06:42:23;96434.97;;;-0.89;77.68
75166;BME280;63747;48.042;10.088;2023-01-24T06:45:24;96434.75;;;-0.84;77.62
75166;BME280;63747;48.042;10.088;2023-01-24T06:48:25;96436.91;;;-0.93;77.63
75166;BME280;63747;48.042;10.088;2023-01-24T06:51:25;96441.19;;;-0.92;77.56
75166;BME280;63747;48.042;10.088;2023-01-24T06:54:26;96447.38;;;-0.94;77.68
75166;BME280;63747;48.042;10.088;2023-01-24T06:57:28;96439.41;;;-0.91;77.77
75166;BME280;63747;48.042;10.088;2023-01-24T07:00:29;96440.25;;;-0.91;77.60
75166;BME280;63747;48.042;10.088;2023-01-24T07:03:30;96445.63;;;-0.94;77.69
75166;BME280;63747;48.042;10.088;2023-01-24T07:06:30;96447.31;;;-0.93;77.72
75166;BME280;63747;48.042;10.088;2023-01-24T07:09:31;96448.97;;;-0.92;77.80
75166;BME280;63747;48.042;10.088;2023-01-24T07:12:31;96448.97;;;-0.92;77.88
75166;BME280;63747;48.042;10.088;2023-01-24T07:15:32;96449.13;;;-0.95;78.06
75166;BME280;63747;48.042;10.088;2023-01-24T07:18:33;96464.72;;;-0.95;78.27
75166;BME280;63747;48.042;10.088;2023-01-24T07:21:38;96459.31;;;-0.90;78.04
75166;BME280;63747;48.042;10.088;2023-01-24T07:24:40;96464.31;;;-0.86;78.10
75166;BME280;63747;48.042;10.088;2023-01-24T07:27:42;96466.19;;;-0.89;77.99
75166;BME280;63747;48.042;10.088;2023-01-24T07:30:43;96471.41;;;-0.89;78.21
75166;BME280;63747;48.042;10.088;2023-01-24T07:33:45;96463.19;;;-0.80;77.87
75166;BME280;63747;48.042;10.088;2023-01-24T07:36:46;96467.69;;;-0.83;77.89
75166;BME280;63747;48.042;10.088;2023-01-24T07:39:47;96469.28;;;-0.81;77.98
75166;BME280;63747;48.042;10.088;2023-01-24T07:42:48;96471.84;;;-0.79;78.06
75166;BME280;63747;48.042;10.088;2023-01-24T07:45:49;96470.75;;;-0.75;77.86
75166;BME280;63747;48.042;10.088;2023-01-24T07:48:49;96475.00;;;-0.73;77.64
75166;BME280;63747;48.042;10.088;2023-01-24T07:51:51;96487.09;;;-0.72;77.86
75166;BME280;63747;48.042;10.088;2023-01-24T07:54:52;96479.03;;;-0.67;77.79
75166;BME280;63747;48.042;10.088;2023-01-24T07:58:00;96482.34;;;-0.64;77.56
75166;BME280;63747;48.042;10.088;2023-01-24T08:01:01;96484.19;;;-0.66;77.55
75166;BME280;63747;48.042;10.088;2023-01-24T08:04:02;96489.44;;;-0.67;77.68
75166;BME280;63747;48.042;10.088;2023-01-24T08:07:03;96487.00;;;-0.70;77.62
75166;BME280;63747;48.042;10.088;2023-01-24T08:10:16;96499.88;;;-0.67;77.60
75166;BME280;63747;48.042;10.088;2023-01-24T08:13:17;96490.31;;;-0.67;77.92
75166;BME280;63747;48.042;10.088;2023-01-24T08:16:18;96491.00;;;-0.63;77.71
75166;BME280;63747;48.042;10.088;2023-01-24T08:19:23;96497.75;;;-0.59;77.75
75166;BME280;63747;48.042;10.088;2023-01-24T08:22:24;96495.91;;;-0.57;77.47
75166;BME280;63747;48.042;10.088;2023-01-24T08:25:26;96497.47;;;-0.53;77.71
75166;BME280;63747;48.042;10.088;2023-01-24T08:28:28;96500.53;;;-0.45;77.41
75166;BME280;63747;48.042;10.088;2023-01-24T08:31:33;96495.16;;;-0.42;77.38
75166;BME280;63747;48.042;10.088;2023-01-24T08:34:34;96498.56;;;-0.40;77.08
75166;BME280;63747;48.042;10.088;2023-01-24T08:37:35;96496.56;;;-0.35;76.88
75166;BME280;63747;48.042;10.088;2023-01-24T08:40:35;96509.53;;;-0.33;77.06
75166;BME280;63747;48.042;10.088;2023-01-24T08:43:36;96513.75;;;-0.31;77.09
75166;BME280;63747;48.042;10.088;2023-01-24T08:46:37;96509.38;;;-0.30;77.09
75166;BME280;63747;48.042;10.088;2023-01-24T08:49:37;96510.38;;;-0.33;76.85
75166;BME280;63747;48.042;10.088;2023-01-24T08:52:38;96514.66;;;-0.32;76.71
75166;BME280;63747;48.042;10.088;2023-01-24T08:55:39;96526.91;;;-0.34;76.85
75166;BME280;63747;48.042;10.088;2023-01-24T08:58:39;96520.84;;;-0.34;76.81
75166;BME280;63747;48.042;10.088;2023-01-24T09:01:40;96526.84;;;-0.32;76.99
75166;BME280;63747;48.042;10.088;2023-01-24T09:04:42;96525.22;;;-0.35;76.78
75166;BME280;63747;48.042;10.088;2023-01-24T09:07:43;96527.53;;;-0.28;76.68
75166;BME280;63747;48.042;10.088;2023-01-24T09:10:43;96526.28;;;-0.39;77.08
75166;BME280;63747;48.042;10.088;2023-01-24T09:13:44;96531.91;;;-0.29;76.75
75166;BME280;63747;48.042;10.088;2023-01-24T09:16:45;96537.81;;;-0.25;76.68
75166;BME280;63747;48.042;10.088;2023-01-24T09:19:46;96542.88;;;-0.22;76.52
75166;BME280;63747;48.042;10.088;2023-01-24T09:22:46;96547.94;;;-0.19;76.60
75166;BME280;63747;48.042;10.088;2023-01-24T09:25:51;96541.94;;;-0.21;76.26
75166;BME280;63747;48.042;10.088;2023-01-24T09:28:52;96549.00;;;-0.23;76.60
75166;BME280;63747;48.042;10.088;2023-01-24T09:31:53;96554.00;;;-0.19;76.40
75166;BME280;63747;48.042;10.088;2023-01-24T09:34:55;96550.31;;;-0.15;76.34
75166;BME280;63747;48.042;10.088;2023-01-24T09:37:55;96560.88;;;-0.18;76.52
75166;BME280;63747;48.042;10.088;2023-01-24T09:44:03;96542.56;;;-0.16;76.46
75166;BME280;63747;48.042;10.088;2023-01-24T09:47:23;96551.69;;;-0.08;76.29
75166;BME280;63747;48.042;10.088;2023-01-24T09:50:47;96556.69;;;-0.03;76.23
75166;BME280;63747;48.042;10.088;2023-01-24T09:53:52;96560.28;;;-0.06;76.05
75166;BME280;63747;48.042;10.088;2023-01-24T09:56:55;96564.50;;;-0.03;75.95
75166;BME280;63747;48.042;10.088;2023-01-24T10:00:02;96558.22;;;0.01;75.91
75166;BME280;63747;48.042;10.088;2023-01-24T10:03:14;96559.00;;;0.03;75.92
75166;BME280;63747;48.042;10.088;2023-01-24T10:06:24;96559.22;;;0.16;75.87
75166;BME280;63747;48.042;10.088;2023-01-24T10:13:04;96573.09;;;0.16;75.78
75166;BME280;63747;48.042;10.088;2023-01-24T10:23:04;96566.66;;;0.23;75.50
75166;BME280;63747;48.042;10.088;2023-01-24T10:29:12;96568.56;;;0.37;75.48
75166;BME280;63747;48.042;10.088;2023-01-24T10:32:16;96567.25;;;0.46;75.27
75166;BME280;63747;48.042;10.088;2023-01-24T10:35:36;96569.13;;;0.44;75.21
75166;BME280;63747;48.042;10.088;2023-01-24T10:38:41;96563.50;;;0.34;75.10
75166;BME280;63747;48.042;10.088;2023-01-24T10:41:43;96557.13;;;0.40;74.97
75166;BME280;63747;48.042;10.088;2023-01-24T10:44:44;96552.94;;;0.37;75.16
75166;BME280;63747;48.042;10.088;2023-01-24T10:47:52;96549.16;;;0.43;75.20
75166;BME280;63747;48.042;10.088;2023-01-24T10:51:12;96553.16;;;0.33;74.95
75166;BME280;63747;48.042;10.088;2023-01-24T10:54:20;96554.63;;;0.38;75.02
75166;BME280;63747;48.042;10.088;2023-01-24T10:57:44;96552.38;;;0.48;74.69
75166;BME280;63747;48.042;10.088;2023-01-24T11:00:56;96540.41;;;0.44;74.51
75166;BME280;63747;48.042;10.088;2023-01-24T11:03:57;96546.69;;;0.40;74.62
75166;BME280;63747;48.042;10.088;2023-01-24T11:06:58;96540.84;;;0.52;74.67
75166;BME280;63747;48.042;10.088;2023-01-24T11:10:10;96537.31;;;0.53;74.55
75166;BME280;63747;48.042;10.088;2023-01-24T11:16:29;96536.97;;;0.43;74.65
75166;BME280;63747;48.042;10.088;2023-01-24T11:19:37;96534.97;;;0.48;74.69
75166;BME280;63747;48.042;10.088;2023-01-24T11:22:39;96533.03;;;0.52;74.21
75166;BME280;63747;48.042;10.088;2023-01-24T11:26:00;96534.56;;;0.56;74.52
75166;BME280;63747;48.042;10.088;2023-01-24T11:29:20;96531.19;;;0.54;74.42
75166;BME280;63747;48.042;10.088;2023-01-24T11:32:39;96536.66;;;0.49;74.58
75166;BME280;63747;48.042;10.088;2023-01-24T11:35:48;96527.19;;;0.47;74.69
75166;BME280;63747;48.042;10.088;2023-01-24T11:38:53;96531.84;;;0.42;74.79
75166;BME280;63747;48.042;10.088;2023-01-24T11:42:07;96538.97;;;0.38;74.64
75166;BME280;63747;48.042;10.088;2023-01-24T11:48:32;96521.53;;;0.39;74.83
75166;BME280;63747;48.042;10.088;2023-01-24T11:51:51;96526.63;;;0.42;74.77
75166;BME280;63747;48.042;10.088;2023-01-24T11:58:13;96512.91;;;0.54;74.49
75166;BME280;63747;48.042;10.088;2023-01-24T12:01:45;96511.56;;;0.47;74.68
75166;BME280;63747;48.042;10.088;2023-01-24T12:12:08;96507.34;;;0.44;74.87
75166;BME280;63747;48.042;10.088;2023-01-24T12:15:20;96508.09;;;0.46;74.86
75166;BME280;63747;48.042;10.088;2023-01-24T12:21:35;96501.19;;;0.45;75.02
75166;BME280;63747;48.042;10.088;2023-01-24T12:24:39;96494.13;;;0.47;74.98
75166;BME280;63747;48.042;10.088;2023-01-24T12:27:42;96493.38;;;0.45;75.04
75166;BME280;63747;48.042;10.088;2023-01-24T12:30:47;96498.59;;;0.45;75.24
75166;BME280;63747;48.042;10.088;2023-01-24T12:37:45;96489.31;;;0.40;75.20
75166;BME280;63747;48.042;10.088;2023-01-24T12:50:25;96493.59;;;0.41;74.97
75166;BME280;63747;48.042;10.088;2023-01-24T12:53:38;96479.09;;;0.53;74.89
75166;BME280;63747;48.042;10.088;2023-01-24T12:56:48;96480.72;;;0.55;74.78
75166;BME280;63747;48.042;10.088;2023-01-24T12:59:50;96474.72;;;0.53;74.85
75166;BME280;63747;48.042;10.088;2023-01-24T13:06:46;96470.19;;;0.72;74.56
75166;BME280;63747;48.042;10.088;2023-01-24T13:10:13;96474.66;;;0.70;74.70
75166;BME280;63747;48.042;10.088;2023-01-24T13:13:23;96466.56;;;0.75;74.53
75166;BME280;63747;48.042;10.088;2023-01-24T13:16:55;96473.19;;;0.82;74.25
75166;BME280;63747;48.042;10.088;2023-01-24T13:23:50;96466.47;;;0.61;74.45
75166;BME280;63747;48.042;10.088;2023-01-24T13:31:14;96466.97;;;0.51;74.46
75166;BME280;63747;48.042;10.088;2023-01-24T13:38:26;96478.00;;;0.57;74.46
75166;BME280;63747;48.042;10.088;2023-01-24T13:44:32;96477.09;;;0.58;74.30
75166;BME280;63747;48.042;10.088;2023-01-24T13:51:34;96484.41;;;0.34;74.62
75166;BME280;63747;48.042;10.088;2023-01-24T13:58:23;96487.31;;;0.45;74.47
75166;BME280;63747;48.042;10.088;2023-01-24T14:01:26;96490.00;;;0.43;74.62
75166;BME280;63747;48.042;10.088;2023-01-24T14:04:42;96486.97;;;0.35;74.47
75166;BME280;63747;48.042;10.088;2023-01-24T14:07:43;96487.34;;;0.28;74.70
75166;BME280;63747;48.042;10.088;2023-01-24T14:10:46;96491.41;;;0.33;74.52
75166;BME280;63747;48.042;10.088;2023-01-24T14:19:49;96500.91;;;0.34;74.98
75166;BME280;63747;48.042;10.088;2023-01-24T14:22:53;96515.41;;;0.40;74.81
75166;BME280;63747;48.042;10.088;2023-01-24T14:25:57;96514.72;;;0.36;74.76
75166;BME280;63747;48.042;10.088;2023-01-24T14:29:00;96514.50;;;0.23;74.92
75166;BME280;63747;48.042;10.088;2023-01-24T14:32:03;96513.59;;;0.24;74.91
75166;BME280;63747;48.042;10.088;2023-01-24T14:35:23;96507.09;;;0.16;74.97
75166;BME280;63747;48.042;10.088;2023-01-24T14:38:34;96514.81;;;0.17;75.14
75166;BME280;63747;48.042;10.088;2023-01-24T14:41:35;96526.09;;;0.18;74.96
75166;BME280;63747;48.042;10.088;2023-01-24T14:44:37;96524.84;;;0.25;75.15
75166;BME280;63747;48.042;10.088;2023-01-24T14:47:38;96522.41;;;0.22;74.92
75166;BME280;63747;48.042;10.088;2023-01-24T14:51:13;96534.53;;;0.23;75.07
75166;BME280;63747;48.042;10.088;2023-01-24T14:54:23;96533.81;;;0.19;75.12
75166;BME280;63747;48.042;10.088;2023-01-24T14:57:27;96539.97;;;0.18;75.21
75166;BME280;63747;48.042;10.088;2023-01-24T15:00:28;96539.50;;;0.10;75.37
75166;BME280;63747;48.042;10.088;2023-01-24T15:03:31;96541.38;;;0.08;75.33
75166;BME280;63747;48.042;10.088;2023-01-24T15:06:32;96550.16;;;0.06;75.42
75166;BME280;63747;48.042;10.088;2023-01-24T15:09:42;96545.88;;;0.05;75.46
75166;BME280;63747;48.042;10.088;2023-01-24T15:12:42;96549.94;;;0.10;75.42
75166;BME280;63747;48.042;10.088;2023-01-24T15:15:43;96555.28;;;0.07;75.47
75166;BME280;63747;48.042;10.088;2023-01-24T15:18:48;96557.44;;;-0.01;75.59
75166;BME280;63747;48.042;10.088;2023-01-24T15:21:51;96544.28;;;0.02;75.65
75166;BME280;63747;48.042;10.088;2023-01-24T15:24:58;96558.16;;;0.03;75.60
75166;BME280;63747;48.042;10.088;2023-01-24T15:28:20;96557.91;;;0.07;75.50
75166;BME280;63747;48.042;10.088;2023-01-24T15:31:27;96559.84;;;0.04;75.48
75166;BME280;63747;48.042;10.088;2023-01-24T15:34:29;96565.03;;;0.04;75.44
75166;BME280;63747;48.042;10.088;2023-01-24T15:37:30;96560.84;;;0.01;75.51
75166;BME280;63747;48.042;10.088;2023-01-24T15:40:33;96560.97;;;-0.02;75.72
75166;BME280;63747;48.042;10.088;2023-01-24T15:43:36;96561.81;;;-0.01;75.71
75166;BME280;63747;48.042;10.088;2023-01-24T15:46:56;96559.59;;;-0.09;75.85
75166;BME280;63747;48.042;10.088;2023-01-24T15:50:22;96564.03;;;-0.11;75.97
75166;BME280;63747;48.042;10.088;2023-01-24T15:53:43;96570.19;;;-0.12;75.81
75166;BME280;63747;48.042;10.088;2023-01-24T15:56:44;96569.47;;;-0.16;76.10
75166;BME280;63747;48.042;10.088;2023-01-24T15:59:55;96565.09;;;-0.15;75.86
75166;BME280;63747;48.042;10.088;2023-01-24T16:03:00;96574.06;;;-0.21;75.94
75166;BME280;63747;48.042;10.088;2023-01-24T16:06:07;96580.09;;;-0.20;75.85
75166;BME280;63747;48.042;10.088;2023-01-24T16:09:16;96582.66;;;-0.19;75.94
75166;BME280;63747;48.042;10.088;2023-01-24T16:16:26;96594.69;;;-0.16;76.21
75166;BME280;63747;48.042;10.088;2023-01-24T16:19:58;96588.72;;;-0.18;75.98
75166;BME280;63747;48.042;10.088;2023-01-24T16:23:09;96589.00;;;-0.24;76.05
75166;BME280;63747;48.042;10.088;2023-01-24T16:26:26;96590.84;;;-0.26;76.15
75166;BME280;63747;48.042;10.088;2023-01-24T16:29:50;96599.25;;;-0.21;76.08
75166;BME280;63747;48.042;10.088;2023-01-24T16:33:18;96600.06;;;-0.19;76.17
75166;BME280;63747;48.042;10.088;2023-01-24T16:40:17;96598.34;;;-0.20;76.04
75166;BME280;63747;48.042;10.088;2023-01-24T16:47:15;96608.94;;;-0.23;76.21
75166;BME280;63747;48.042;10.088;2023-01-24T16:54:13;96599.63;;;-0.29;76.18
75166;BME280;63747;48.042;10.088;2023-01-24T17:00:53;96603.31;;;-0.33;76.22
75166;BME280;63747;48.042;10.088;2023-01-24T17:03:54;96609.50;;;-0.36;76.47
75166;BME280;63747;48.042;10.088;2023-01-24T17:11:04;96616.47;;;-0.36;76.33
75166;BME280;63747;48.042;10.088;2023-01-24T17:18:03;96607.81;;;-0.37;76.18
75166;BME280;63747;48.042;10.088;2023-01-24T17:24:37;96615.91;;;-0.43;76.52
75166;BME280;63747;48.042;10.088;2023-01-24T17:31:35;96613.03;;;-0.37;76.19
75166;BME280;63747;48.042;10.088;2023-01-24T17:38:32;96626.53;;;-0.28;76.14
75166;BME280;63747;48.042;10.088;2023-01-24T17:41:34;96629.94;;;-0.26;76.04
75166;BME280;63747;48.042;10.088;2023-01-24T17:48:31;96622.53;;;-0.36;75.99
75166;BME280;63747;48.042;10.088;2023-01-24T17:55:29;96623.53;;;-0.38;76.20
75166;BME280;63747;48.042;10.088;2023-01-24T17:58:30;96626.13;;;-0.38;76.23
75166;BME280;63747;48.042;10.088;2023-01-24T18:01:31;96623.59;;;-0.40;76.04
75166;BME280;63747;48.042;10.088;2023-01-24T18:04:31;96623.25;;;-0.32;76.03
75166;BME280;63747;48.042;10.088;2023-01-24T18:11:29;96613.97;;;-0.20;75.60
75166;BME280;63747;48.042;10.088;2023-01-24T18:18:26;96610.81;;;-0.27;75.83
75166;BME280;63747;48.042;10.088;2023-01-24T18:21:27;96607.94;;;-0.21;75.90
75166;BME280;63747;48.042;10.088;2023-01-24T18:24:27;96613.00;;;-0.18;75.74
75166;BME280;63747;48.042;10.088;2023-01-24T18:31:27;96619.16;;;-0.19;75.91
75166;BME280;63747;48.042;10.088;2023-01-24T18:34:27;96605.09;;;-0.16;75.76
75166;BME280;63747;48.042;10.088;2023-01-24T18:45:22;96608.47;;;-0.14;75.47
75166;BME280;63747;48.042;10.088;2023-01-24T18:48:22;96608.34;;;-0.11;75.74
75166;BME280;63747;48.042;10.088;2023-01-24T18:51:30;96596.16;;;-0.11;75.57
75166;BME280;63747;48.042;10.088;2023-01-24T18:54:37;96587.19;;;-0.05;75.61
75166;BME280;63747;48.042;10.088;2023-01-24T18:57:38;96591.25;;;0.01;75.74
75166;BME280;63747;48.042;10.088;2023-01-24T19:00:48;96584.44;;;-0.02;75.80
75166;BME280;63747;48.042;10.088;2023-01-24T19:04:11;96581.69;;;0.01;75.60
75166;BME280;63747;48.042;10.088;2023-01-24T19:07:21;96582.00;;;-0.05;75.60
75166;BME280;63747;48.042;10.088;2023-01-24T19:18:07;96588.56;;;-0.15;75.70
75166;BME280;63747;48.042;10.088;2023-01-24T19:21:39;96587.38;;;-0.27;75.96
75166;BME280;63747;48.042;10.088;2023-01-24T19:24:40;96594.28;;;-0.26;76.01
75166;BME280;63747;48.042;10.088;2023-01-24T19:27:41;96591.44;;;-0.21;75.86
75166;BME280;63747;48.042;10.088;2023-01-24T19:30:42;96579.25;;;-0.21;75.73
75166;BME280;63747;48.042;10.088;2023-01-24T19:33:42;96585.09;;;-0.16;76.03
75166;BME280;63747;48.042;10.088;2023-01-24T19:37:06;96597.22;;;-0.15;75.92
75166;BME280;63747;48.042;10.088;2023-01-24T19:40:08;96592.84;;;-0.14;76.06
75166;BME280;63747;48.042;10.088;2023-01-24T19:43:09;96589.19;;;-0.10;75.91
75166;BME280;63747;48.042;10.088;2023-01-24T19:50:09;96604.94;;;-0.13;75.92
75166;BME280;63747;48.042;10.088;2023-01-24T19:56:55;96590.69;;;-0.23;75.96
75166;BME280;63747;48.042;10.088;2023-01-24T19:59:55;96588.16;;;-0.25;76.02
75166;BME280;63747;48.042;10.088;2023-01-24T20:02:57;96596.28;;;-0.31;76.13